sensor_id;sensor_type;location;lat;lon;timestamp;P1;durP1;ratioP1;P2;durP2;ratioP2
25627;SDS011;40915;50.826;4.356;2023-09-12T21:07:07;28.85;;;23.42;;
25627;SDS011;40915;50.826;4.356;2023-09-12T21:09:33;29.17;;;24.02;;
25627;SDS011;40915;50.826;4.356;2023-09-12T21:11:58;31.73;;;24.95;;
25627;SDS011;40915;50.826;4.356;2023-09-12T21:14:28;26.45;;;21.27;;
25627;SDS011;40915;50.826;4.356;2023-09-12T21:16:54;30.95;;;23.88;;
25627;SDS011;40915;50.826;4.356;2023-09-12T21:19:20;27.27;;;21.98;;
25627;SDS011;40915;50.826;4.356;2023-09-12T21:21:45;23.27;;;19.25;;
25627;SDS011;40915;50.826;4.356;2023-09-12T21:24:11;23.77;;;19.50;;
25627;SDS011;40915;50.826;4.356;2023-09-12T21:26:38;22.30;;;19.27;;
25627;SDS011;40915;50.826;4.356;2023-09-12T21:29:04;22.65;;;19.27;;
25627;SDS011;40915;50.826;4.356;2023-09-12T21:31:29;19.38;;;16.98;;
25627;SDS011;40915;50.826;4.356;2023-09-12T21:33:55;21.73;;;17.85;;
25627;SDS011;40915;50.826;4.356;2023-09-12T21:36:21;19.45;;;15.93;;
25627;SDS011;40915;50.826;4.356;2023-09-12T21:38:46;15.68;;;13.80;;
25627;SDS011;40915;50.826;4.356;2023-09-12T21:41:12;17.25;;;14.43;;
25627;SDS011;40915;50.826;4.356;2023-09-12T21:43:38;17.52;;;15.35;;
25627;SDS011;40915;50.826;4.356;2023-09-12T21:46:03;12.25;;;10.75;;
25627;SDS011;40915;50.826;4.356;2023-09-12T21:48:29;12.98;;;11.52;;
25627;SDS011;40915;50.826;4.356;2023-09-12T21:50:55;14.73;;;11.75;;
25627;SDS011;40915;50.826;4.356;2023-09-12T21:53:20;11.85;;;10.40;;
25627;SDS011;40915;50.826;4.356;2023-09-12T21:55:46;11.05;;;8.65;;
25627;SDS011;40915;50.826;4.356;2023-09-12T21:58:13;11.73;;;8.90;;
25627;SDS011;40915;50.826;4.356;2023-09-12T22:00:39;10.60;;;8.07;;
25627;SDS011;40915;50.826;4.356;2023-09-12T22:03:07;7.57;;;6.53;;
25627;SDS011;40915;50.826;4.356;2023-09-12T22:05:35;9.13;;;7.15;;
25627;SDS011;40915;50.826;4.356;2023-09-12T22:08:02;12.32;;;7.63;;
25627;SDS011;40915;50.826;4.356;2023-09-12T22:10:28;24.35;;;8.35;;
25627;SDS011;40915;50.826;4.356;2023-09-12T22:12:55;13.30;;;7.47;;
25627;SDS011;40915;50.826;4.356;2023-09-12T22:15:21;8.30;;;6.38;;
25627;SDS011;40915;50.826;4.356;2023-09-12T22:17:47;7.38;;;6.38;;
25627;SDS011;40915;50.826;4.356;2023-09-12T22:20:13;7.25;;;6.50;;
25627;SDS011;40915;50.826;4.356;2023-09-12T22:22:42;7.75;;;6.95;;
25627;SDS011;40915;50.826;4.356;2023-09-12T22:25:09;9.32;;;7.18;;
25627;SDS011;40915;50.826;4.356;2023-09-12T22:27:35;8.85;;;7.45;;
25627;SDS011;40915;50.826;4.356;2023-09-12T22:30:01;9.82;;;8.38;;
25627;SDS011;40915;50.826;4.356;2023-09-12T22:32:27;12.35;;;8.73;;
25627;SDS011;40915;50.826;4.356;2023-09-12T22:34:53;10.50;;;9.10;;
25627;SDS011;40915;50.826;4.356;2023-09-12T22:37:18;12.55;;;9.57;;
25627;SDS011;40915;50.826;4.356;2023-09-12T22:39:44;14.80;;;10.65;;
25627;SDS011;40915;50.826;4.356;2023-09-12T22:42:10;13.13;;;11.23;;
25627;SDS011;40915;50.826;4.356;2023-09-12T22:44:35;15.48;;;12.27;;
25627;SDS011;40915;50.826;4.356;2023-09-12T22:47:01;16.27;;;13.20;;
25627;SDS011;40915;50.826;4.356;2023-09-12T22:49:26;17.77;;;13.93;;
25627;SDS011;40915;50.826;4.356;2023-09-12T22:51:52;22.33;;;16.95;;
25627;SDS011;40915;50.826;4.356;2023-09-12T22:54:18;22.92;;;17.15;;
25627;SDS011;40915;50.826;4.356;2023-09-12T22:56:44;22.60;;;17.80;;
25627;SDS011;40915;50.826;4.356;2023-09-12T22:59:09;25.20;;;18.77;;
25627;SDS011;40915;50.826;4.356;2023-09-12T23:01:35;25.73;;;19.02;;
25627;SDS011;40915;50.826;4.356;2023-09-12T23:04:00;26.90;;;20.33;;
25627;SDS011;40915;50.826;4.356;2023-09-12T23:06:26;28.38;;;19.58;;
25627;SDS011;40915;50.826;4.356;2023-09-12T23:08:52;29.40;;;19.75;;
25627;SDS011;40915;50.826;4.356;2023-09-12T23:11:18;25.48;;;20.23;;
25627;SDS011;40915;50.826;4.356;2023-09-12T23:13:43;26.70;;;20.30;;
25627;SDS011;40915;50.826;4.356;2023-09-12T23:16:09;28.80;;;21.15;;
25627;SDS011;40915;50.826;4.356;2023-09-12T23:18:35;30.70;;;21.42;;
25627;SDS011;40915;50.826;4.356;2023-09-12T23:21:00;32.33;;;22.00;;
25627;SDS011;40915;50.826;4.356;2023-09-12T23:23:26;31.67;;;21.98;;
25627;SDS011;40915;50.826;4.356;2023-09-12T23:25:52;30.58;;;21.05;;
25627;SDS011;40915;50.826;4.356;2023-09-12T23:28:18;29.02;;;21.13;;
25627;SDS011;40915;50.826;4.356;2023-09-12T23:30:44;32.70;;;21.38;;
25627;SDS011;40915;50.826;4.356;2023-09-12T23:33:10;31.17;;;21.55;;
25627;SDS011;40915;50.826;4.356;2023-09-12T23:35:37;31.23;;;21.17;;
25627;SDS011;40915;50.826;4.356;2023-09-12T23:38:03;31.55;;;21.17;;
25627;SDS011;40915;50.826;4.356;2023-09-12T23:40:29;28.80;;;21.50;;
25627;SDS011;40915;50.826;4.356;2023-09-12T23:42:54;31.42;;;21.27;;
25627;SDS011;40915;50.826;4.356;2023-09-12T23:45:20;27.88;;;21.02;;
25627;SDS011;40915;50.826;4.356;2023-09-12T23:47:46;31.10;;;20.70;;
25627;SDS011;40915;50.826;4.356;2023-09-12T23:50:11;29.45;;;21.08;;
25627;SDS011;40915;50.826;4.356;2023-09-12T23:52:37;30.60;;;21.58;;
25627;SDS011;40915;50.826;4.356;2023-09-12T23:55:03;29.05;;;21.23;;
25627;SDS011;40915;50.826;4.356;2023-09-12T23:57:29;35.47;;;22.25;;
25627;SDS011;40915;50.826;4.356;2023-09-12T23:59:54;34.42;;;23.50;;
